Alamogordo, NM

3:13 AM MST on December 16, 2019 (GMT -0700)
Alamogordo-White Sands Regional

Weather History for KALM - November, 2019

Change the Weather History Date:

Thursday, November 14, 2019

  Actual Average Record
Temperature  
Mean Temperature 47 °F -  
Max Temperature 62 °F 65 °F 82 °F (1973)
Min Temperature 32 °F 37 °F 17 °F (1976)
Degree Days  
Heating Degree Days 18    
Moisture  
Dew Point 23 °F    
Average Humidity 44    
Maximum Humidity 69    
Minimum Humidity 19    
Precipitation  
Precipitation 0.00 in - - ()
Sea Level Pressure  
Sea Level Pressure 30.28 in    
Wind  
Wind Speed 5 mph ()    
Max Wind Speed 16 mph    
Max Gust Speed 21 mph    
Visibility 9.6 miles    
Events      
Averages and records for this station are not official NWS values.
T = Trace of Precipitation, MM = Missing Value Source: Averaged Metar Reports

Daily Weather History Graph

Daily Weather History Graph

Search for Another Location

Airport or City:

Astronomy

Nov. 14, 2019 Rise Set
Actual Time 6:33 AM MST 5:03 PM MST
Civil Twilight 6:07 AM MST 5:29 PM MST
Nautical Twilight 5:37 AM MST 5:59 PM MST
Astronomical Twilight 5:08 AM MST 6:28 PM MST
Moon 6:55 PM MST (11/14) 8:27 AM MST (11/14)
Length of Visible Light 11h 22m
Length of Day
10h 30m
Waning Gibbous, 95% of the Moon is Illuminated
Nov 14
Waning Gibbous
Nov 19
Last Quarter
Nov 26
New
Dec 3
First Quarter
Dec 11
Full

Hourly Weather History & Observations

Time (MST) Temp. Windchill Dew Point Humidity Pressure Visibility Wind Dir Wind Speed Gust Speed Precip Events Conditions
12:15 AM 39.2 °F - 21.2 °F 49% 30.11 in 4.0 mi Calm Calm - N/A   Haze
12:55 AM 39.2 °F 37.0 °F 23.0 °F 52% 30.13 in 10.0 mi WSW 3.5 mph - N/A   Clear
1:15 AM 37.4 °F 31.4 °F 23.0 °F 56% 30.13 in 3.0 mi NW 8.1 mph - N/A   Haze
1:35 AM 37.4 °F 33.8 °F 23.0 °F 56% 30.14 in 3.0 mi NNE 4.6 mph - N/A   Haze
1:55 AM 35.6 °F 31.7 °F 21.2 °F 56% 30.14 in 10.0 mi NNE 4.6 mph - N/A   Clear
2:15 AM 37.4 °F 33.8 °F 21.2 °F 52% 30.14 in 10.0 mi NE 4.6 mph - N/A   Clear
2:35 AM 32.0 °F 27.5 °F 21.2 °F 64% 30.14 in 10.0 mi East 4.6 mph - N/A   Clear
2:55 AM 32.0 °F 26.4 °F 21.2 °F 64% 30.14 in 10.0 mi East 5.8 mph - N/A   Clear
3:15 AM 35.6 °F 30.7 °F 23.0 °F 60% 30.15 in 10.0 mi East 5.8 mph - N/A   Clear
3:35 AM 32.0 °F 26.4 °F 21.2 °F 64% 30.16 in 10.0 mi ENE 5.8 mph - N/A   Clear
3:55 AM 35.6 °F 30.7 °F 23.0 °F 60% 30.16 in 10.0 mi NE 5.8 mph - N/A   Clear
4:15 AM 35.6 °F 30.7 °F 23.0 °F 60% 30.17 in 10.0 mi NE 5.8 mph - N/A   Clear
4:35 AM 35.6 °F 30.7 °F 23.0 °F 60% 30.17 in 10.0 mi NE 5.8 mph - N/A   Clear
4:55 AM 33.8 °F - 23.0 °F 65% 30.18 in 10.0 mi Calm Calm - N/A   Clear
5:15 AM 32.0 °F 28.7 °F 21.2 °F 64% 30.18 in 10.0 mi SSE 3.5 mph - N/A   Clear
5:35 AM 32.0 °F 27.5 °F 21.2 °F 64% 30.19 in 10.0 mi South 4.6 mph - N/A   Clear
5:55 AM 35.6 °F 31.7 °F 23.0 °F 60% 30.21 in 10.0 mi South 4.6 mph - N/A   Clear
6:15 AM 32.0 °F - 23.0 °F 69% 30.21 in 7.0 mi Calm Calm - N/A   Clear
6:35 AM 32.0 °F 28.7 °F 23.0 °F 69% 30.22 in 10.0 mi SE 3.5 mph - N/A   Clear
6:55 AM 32.0 °F 28.7 °F 23.0 °F 69% 30.23 in 10.0 mi East 3.5 mph - N/A   Clear
7:15 AM 32.0 °F - 23.0 °F 69% 30.25 in 10.0 mi Calm Calm - N/A   Clear
7:35 AM 39.2 °F - 23.0 °F 52% 30.27 in 10.0 mi Calm Calm - N/A   Clear
7:55 AM 41.0 °F - 24.8 °F 53% 30.28 in 10.0 mi Calm Calm - N/A   Clear
8:15 AM 42.8 °F - 24.8 °F 49% 30.28 in 10.0 mi Calm Calm - N/A   Clear
8:35 AM 44.6 °F 43.1 °F 24.8 °F 46% 30.29 in 6.0 mi West 3.5 mph - N/A   Haze
8:55 AM 46.4 °F 45.2 °F 24.8 °F 43% 30.31 in 10.0 mi South 3.5 mph - N/A   Clear
9:35 AM 50.0 °F - 26.6 °F 40% 30.31 in 10.0 mi South 8.1 mph - N/A   Clear
9:55 AM 50.0 °F - 26.6 °F 40% 30.32 in 10.0 mi South 9.2 mph - N/A   Clear
10:35 AM 55.4 °F - 24.8 °F 31% 30.32 in 10.0 mi South 12.7 mph - N/A   Clear
10:55 AM 57.2 °F - 24.8 °F 29% 30.32 in 10.0 mi South 16.1 mph 19.6 mph N/A   Clear
11:15 AM 59.0 °F - 23.0 °F 25% 30.31 in 10.0 mi SSW 13.8 mph 20.7 mph N/A   Clear
11:35 AM 57.2 °F - 23.0 °F 27% 30.31 in 10.0 mi SSW 13.8 mph 20.7 mph N/A   Clear
11:55 AM 57.2 °F - 23.0 °F 27% 30.31 in 10.0 mi SSW 15.0 mph 18.4 mph N/A   Clear
12:15 PM 59.0 °F - 23.0 °F 25% 30.31 in 10.0 mi SSW 10.4 mph - N/A   Clear
12:35 PM 59.0 °F - 21.2 °F 23% 30.30 in 10.0 mi WSW 9.2 mph 17.3 mph N/A   Clear
12:55 PM 62.6 °F - 19.4 °F 19% 30.30 in 10.0 mi WSW 5.8 mph - N/A   Clear
1:15 PM 60.8 °F - 19.4 °F 20% 30.29 in 10.0 mi South 8.1 mph - N/A   Clear
1:35 PM 60.8 °F - 19.4 °F 20% 30.29 in 10.0 mi Calm Calm - N/A   Clear
1:55 PM 62.6 °F - 19.4 °F 19% 30.29 in 10.0 mi West 4.6 mph - N/A   Clear
2:15 PM 62.6 °F - 21.2 °F 20% 30.28 in 10.0 mi South 4.6 mph - N/A   Clear
2:35 PM 62.6 °F - 19.4 °F 19% 30.28 in 10.0 mi WSW 3.5 mph - N/A   Clear
2:55 PM 62.6 °F - 19.4 °F 19% 30.28 in 10.0 mi Calm Calm - N/A   Clear
3:15 PM 62.6 °F - 19.4 °F 19% 30.28 in 10.0 mi Calm Calm - N/A   Clear
3:35 PM 62.6 °F - 21.2 °F 20% 30.28 in 10.0 mi SSW 3.5 mph - N/A   Clear
3:55 PM 60.8 °F - 23.0 °F 23% 30.29 in 10.0 mi South 13.8 mph - N/A   Clear
4:15 PM 59.0 °F - 23.0 °F 25% 30.29 in 10.0 mi South 15.0 mph 19.6 mph N/A   Clear
4:35 PM 57.2 °F - 23.0 °F 27% 30.30 in 10.0 mi South 15.0 mph - N/A   Clear
4:55 PM 55.4 °F - 24.8 °F 31% 30.30 in 10.0 mi South 11.5 mph - N/A   Clear
5:15 PM 53.6 °F - 24.8 °F 33% 30.31 in 10.0 mi South 10.4 mph - N/A   Clear
5:35 PM 50.0 °F - 23.0 °F 35% 30.31 in 10.0 mi South 10.4 mph - N/A   Clear
5:55 PM 50.0 °F - 23.0 °F 35% 30.32 in 10.0 mi South 10.4 mph - N/A   Clear
6:15 PM 46.4 °F 42.9 °F 24.8 °F 43% 30.32 in 10.0 mi SSE 6.9 mph - N/A   Clear
6:35 PM 46.4 °F 42.9 °F 23.0 °F 40% 30.33 in 10.0 mi South 6.9 mph - N/A   Clear
6:55 PM 46.4 °F 44.3 °F 23.0 °F 40% 30.33 in 10.0 mi South 4.6 mph - N/A   Clear
7:15 PM 44.6 °F 41.4 °F 23.0 °F 43% 30.34 in 10.0 mi South 5.8 mph - N/A   Clear
7:35 PM 44.6 °F - 23.0 °F 43% 30.35 in 10.0 mi Calm Calm - N/A   Clear
7:55 PM 42.8 °F - 21.2 °F 42% 30.36 in 10.0 mi Calm Calm - N/A   Clear
8:15 PM 44.6 °F - 23.0 °F 43% 30.36 in 10.0 mi Calm Calm - N/A   Clear
8:35 PM 44.6 °F 43.1 °F 23.0 °F 43% 30.36 in 10.0 mi West 3.5 mph - N/A   Clear
8:55 PM 41.0 °F 35.2 °F 21.2 °F 45% 30.37 in 10.0 mi West 9.2 mph - N/A   Clear
9:15 PM 41.0 °F 37.1 °F 23.0 °F 49% 30.38 in 10.0 mi SW 5.8 mph - N/A   Clear
9:35 PM 41.0 °F 39.0 °F 23.0 °F 49% 30.39 in 10.0 mi ENE 3.5 mph - N/A   Clear
9:55 PM 41.0 °F 38.0 °F 23.0 °F 49% 30.39 in 10.0 mi NNE 4.6 mph - N/A   Clear
10:15 PM 39.2 °F 35.0 °F 23.0 °F 52% 30.40 in 10.0 mi NE 5.8 mph - N/A   Clear
10:35 PM 39.2 °F 35.0 °F 23.0 °F 52% 30.40 in 10.0 mi NW 5.8 mph - N/A   Clear
10:55 PM 37.4 °F 32.1 °F 23.0 °F 56% 30.40 in 10.0 mi NNW 6.9 mph - N/A   Clear
11:35 PM 39.2 °F 35.9 °F 24.8 °F 56% 30.40 in 10.0 mi NW 4.6 mph - N/A   Clear
11:55 PM 37.4 °F 34.9 °F 24.8 °F 60% 30.40 in 10.0 mi NNW 3.5 mph - N/A   Clear